createdAt,value
2022-10-06T00:01:22.697Z,18.88
2022-10-06T00:03:50.110Z,20.38
2022-10-06T00:06:18.628Z,20.73
2022-10-06T00:08:46.735Z,24.63
2022-10-06T00:11:15.425Z,17.27
2022-10-06T00:13:42.850Z,19.48
2022-10-06T00:16:11.985Z,17.77
2022-10-06T00:18:39.616Z,22.65
2022-10-06T00:21:06.928Z,19.02
2022-10-06T00:23:34.258Z,19.17
2022-10-06T00:26:01.519Z,25.15
2022-10-06T00:28:29.378Z,22.38
2022-10-06T00:30:56.913Z,22.27
2022-10-06T00:33:26.462Z,21.15
2022-10-06T00:35:57.338Z,17.80
2022-10-06T00:38:24.805Z,23.23
2022-10-06T00:40:52.482Z,20.13
2022-10-06T00:43:38.729Z,25.63
2022-10-06T00:46:06.100Z,20.48
2022-10-06T00:48:33.707Z,22.88
2022-10-06T00:51:01.852Z,21.90
2022-10-06T00:53:30.610Z,21.10
2022-10-06T00:55:57.826Z,20.05
2022-10-06T00:58:25.537Z,20.17
2022-10-06T01:00:54.396Z,25.23
2022-10-06T01:03:21.623Z,18.27
2022-10-06T01:05:50.962Z,18.52
2022-10-06T01:08:18.616Z,22.88
2022-10-06T01:10:45.849Z,20.00
2022-10-06T01:13:13.717Z,22.30
2022-10-06T01:15:43.883Z,22.63
2022-10-06T01:18:14.113Z,21.47
2022-10-06T01:20:51.670Z,21.67
2022-10-06T01:23:21.584Z,21.58
2022-10-06T01:25:49.004Z,18.30
2022-10-06T01:28:16.298Z,21.40
2022-10-06T01:30:54.792Z,25.85
2022-10-06T01:33:22.832Z,20.92
2022-10-06T01:35:51.269Z,21.27
2022-10-06T01:38:18.768Z,22.30
2022-10-06T01:40:46.177Z,24.05
2022-10-06T01:43:13.519Z,20.67
2022-10-06T01:45:40.778Z,20.67
2022-10-06T01:48:08.112Z,20.80
2022-10-06T01:50:35.379Z,19.90
2022-10-06T01:53:02.701Z,22.38
2022-10-06T01:55:29.925Z,22.25
2022-10-06T01:57:57.203Z,17.00
2022-10-06T02:00:24.530Z,19.02
2022-10-06T02:02:51.891Z,21.35
2022-10-06T02:05:19.205Z,22.17
2022-10-06T02:07:46.529Z,21.25
2022-10-06T02:10:13.818Z,22.38
2022-10-06T02:12:41.160Z,19.90
2022-10-06T02:15:10.715Z,19.80
2022-10-06T02:17:38.484Z,23.52
2022-10-06T02:20:06.507Z,22.88
2022-10-06T02:22:37.814Z,27.08
2022-10-06T02:25:05.317Z,23.20
2022-10-06T02:27:32.546Z,23.60
2022-10-06T02:29:59.839Z,24.75
2022-10-06T02:32:32.908Z,27.23
2022-10-06T02:35:01.003Z,20.20
2022-10-06T02:37:28.244Z,25.08
2022-10-06T02:39:55.594Z,24.52
2022-10-06T02:42:23.272Z,23.08
2022-10-06T02:44:52.252Z,24.50
2022-10-06T02:47:19.827Z,23.77
2022-10-06T02:49:47.336Z,23.02
2022-10-06T02:52:15.596Z,29.17
2022-10-06T02:54:43.040Z,28.83
2022-10-06T02:57:10.477Z,26.50
2022-10-06T02:59:37.728Z,25.10
2022-10-06T03:02:05.092Z,25.98
2022-10-06T03:04:32.554Z,22.17
2022-10-06T03:06:59.828Z,22.38
2022-10-06T03:09:27.058Z,22.90
2022-10-06T03:11:54.329Z,19.02
2022-10-06T03:14:22.292Z,21.05
2022-10-06T03:16:51.967Z,23.83
2022-10-06T03:19:19.305Z,22.85
2022-10-06T03:21:46.573Z,24.25
2022-10-06T03:24:13.843Z,18.80
2022-10-06T03:26:42.518Z,22.38
2022-10-06T03:29:11.698Z,20.10
2022-10-06T03:31:40.212Z,23.15
2022-10-06T03:34:07.861Z,19.42
2022-10-06T03:36:38.104Z,27.67
2022-10-06T03:39:06.328Z,21.93
2022-10-06T03:41:34.866Z,26.48
2022-10-06T03:44:02.193Z,22.70
2022-10-06T03:46:30.710Z,25.70
2022-10-06T03:48:59.422Z,21.52
2022-10-06T03:51:29.640Z,24.00
2022-10-06T03:53:57.619Z,19.80
2022-10-06T03:56:32.242Z,19.90
2022-10-06T03:59:00.991Z,25.30
2022-10-06T04:01:33.410Z,22.23
2022-10-06T04:04:01.335Z,24.30
2022-10-06T04:06:29.577Z,23.98
2022-10-06T04:08:57.220Z,25.38
2022-10-06T04:11:26.126Z,21.85
2022-10-06T04:13:59.095Z,21.08
2022-10-06T04:16:27.627Z,21.40
2022-10-06T04:18:56.660Z,20.45
2022-10-06T04:21:25.078Z,23.88
2022-10-06T04:23:55.973Z,20.40
2022-10-06T04:26:24.490Z,22.15
2022-10-06T04:28:51.988Z,21.42
2022-10-06T04:31:23.773Z,22.20
2022-10-06T04:33:52.812Z,21.23
2022-10-06T04:36:24.195Z,23.33
2022-10-06T04:38:52.127Z,19.75
2022-10-06T04:41:20.425Z,23.13
2022-10-06T04:43:48.270Z,21.13
2022-10-06T04:46:41.006Z,21.23
2022-10-06T04:49:03.588Z,20.45
2022-10-06T04:51:30.989Z,21.33
2022-10-06T04:54:01.193Z,23.60
2022-10-06T04:56:29.984Z,22.35
2022-10-06T04:58:57.765Z,20.60
2022-10-06T05:01:25.132Z,21.20
2022-10-06T05:03:55.188Z,18.70
2022-10-06T05:06:22.522Z,20.35
2022-10-06T05:08:50.735Z,20.67
2022-10-06T05:11:21.364Z,21.25
2022-10-06T05:13:54.218Z,16.55
2022-10-06T05:16:22.482Z,21.48
2022-10-06T05:18:49.919Z,21.65
2022-10-06T05:21:18.832Z,16.20
2022-10-06T05:23:46.489Z,21.02
2022-10-06T05:26:14.748Z,17.00
2022-10-06T05:28:42.079Z,24.15
2022-10-06T05:31:12.552Z,20.42
2022-10-06T05:33:40.257Z,21.92
2022-10-06T05:36:09.057Z,19.70
2022-10-06T05:38:36.325Z,19.80
2022-10-06T05:41:03.597Z,21.58
2022-10-06T05:43:31.213Z,19.45
2022-10-06T05:45:59.646Z,20.90
2022-10-06T05:48:27.640Z,18.50
2022-10-06T05:50:59.346Z,24.58
2022-10-06T05:53:27.282Z,22.60
2022-10-06T05:56:03.072Z,17.52
2022-10-06T05:58:30.850Z,22.60
2022-10-06T06:01:06.385Z,24.55
2022-10-06T06:03:33.651Z,19.33
2022-10-06T06:06:00.859Z,19.20
2022-10-06T06:08:28.637Z,21.10
2022-10-06T06:10:56.094Z,17.60
2022-10-06T06:13:23.987Z,18.70
2022-10-06T06:16:04.548Z,18.60
2022-10-06T06:18:32.589Z,16.23
2022-10-06T06:21:00.993Z,17.27
2022-10-06T06:23:32.305Z,20.80
2022-10-06T06:26:02.412Z,20.35
2022-10-06T06:28:31.014Z,20.33
2022-10-06T06:31:07.544Z,18.48
2022-10-06T06:33:35.956Z,21.83
2022-10-06T06:36:03.418Z,19.88
2022-10-06T06:38:32.318Z,20.27
2022-10-06T06:41:00.007Z,17.85
2022-10-06T06:43:27.722Z,20.85
2022-10-06T06:45:55.183Z,17.05
2022-10-06T06:48:22.768Z,22.65
2022-10-06T06:50:56.369Z,19.40
2022-10-06T06:53:23.686Z,19.50
2022-10-06T06:55:51.594Z,18.17
2022-10-06T06:58:19.640Z,19.13
2022-10-06T07:00:48.309Z,21.75
2022-10-06T07:03:24.120Z,24.35
2022-10-06T07:06:09.571Z,26.13
2022-10-06T07:08:37.922Z,25.48
2022-10-06T07:11:12.571Z,23.30
2022-10-06T07:13:40.656Z,21.65
2022-10-06T07:16:26.499Z,21.05
2022-10-06T07:19:12.525Z,19.52
2022-10-06T07:21:58.669Z,16.05
2022-10-06T07:24:44.749Z,19.85
2022-10-06T07:27:12.220Z,21.83
2022-10-06T07:29:39.669Z,17.52
2022-10-06T07:32:06.941Z,21.02
2022-10-06T07:34:34.258Z,24.15
2022-10-06T07:37:06.419Z,20.15
2022-10-06T07:39:33.913Z,17.65
2022-10-06T07:42:01.229Z,17.15
2022-10-06T07:44:28.475Z,20.60
2022-10-06T07:46:55.721Z,17.33
2022-10-06T07:49:22.983Z,16.00
2022-10-06T07:51:50.248Z,14.82
2022-10-06T07:54:17.518Z,12.73
2022-10-06T07:56:44.797Z,15.20
2022-10-06T07:59:12.134Z,15.35
2022-10-06T08:01:40.332Z,15.68
2022-10-06T08:04:07.626Z,15.25
2022-10-06T08:06:35.101Z,18.33
2022-10-06T08:09:02.558Z,18.45
2022-10-06T08:11:29.834Z,16.67
2022-10-06T08:13:57.082Z,14.10
2022-10-06T08:16:30.262Z,19.15
2022-10-06T08:18:58.925Z,18.52
2022-10-06T08:21:28.275Z,16.00
2022-10-06T08:23:56.718Z,19.00
2022-10-06T08:26:25.190Z,19.85
2022-10-06T08:28:54.290Z,19.52
2022-10-06T08:31:22.854Z,17.77
2022-10-06T08:33:54.203Z,24.25
2022-10-06T08:36:23.394Z,22.52
2022-10-06T08:38:52.207Z,17.50
2022-10-06T08:41:28.792Z,17.95
2022-10-06T08:43:56.053Z,22.77
2022-10-06T08:46:25.321Z,22.40
2022-10-06T08:48:52.638Z,21.67
2022-10-06T08:51:35.352Z,17.00
2022-10-06T08:54:05.451Z,18.08
2022-10-06T08:56:34.525Z,18.45
2022-10-06T08:59:04.442Z,17.23
2022-10-06T09:01:38.958Z,19.92
2022-10-06T09:04:07.817Z,19.60
2022-10-06T09:06:53.612Z,19.48
2022-10-06T09:09:36.274Z,16.95
2022-10-06T09:12:12.795Z,17.52
2022-10-06T09:14:49.320Z,20.85
2022-10-06T09:17:21.253Z,18.98
2022-10-06T09:19:53.119Z,15.77
2022-10-06T09:22:22.336Z,18.33
2022-10-06T09:24:55.180Z,20.20
2022-10-06T09:27:42.383Z,20.23
2022-10-06T09:30:13.126Z,19.92
2022-10-06T09:32:46.781Z,20.55
2022-10-06T09:35:19.215Z,17.95
2022-10-06T09:37:57.340Z,19.85
2022-10-06T09:40:44.492Z,16.65
2022-10-06T09:43:20.945Z,20.35
2022-10-06T09:45:48.301Z,18.33
2022-10-06T09:48:33.832Z,19.23
2022-10-06T09:51:14.828Z,22.30
2022-10-06T09:53:42.934Z,18.45
2022-10-06T09:56:15.314Z,22.52
2022-10-06T09:58:55.852Z,16.08
2022-10-06T10:01:28.375Z,17.63
2022-10-06T10:04:21.083Z,14.63
2022-10-06T10:06:48.171Z,15.02
2022-10-06T10:09:24.406Z,15.00
2022-10-06T10:12:22.063Z,13.85
2022-10-06T10:14:49.497Z,11.18
2022-10-06T10:17:21.380Z,13.40
2022-10-06T10:19:57.733Z,9.18
2022-10-06T10:22:31.911Z,12.32
2022-10-06T10:25:20.365Z,9.02
2022-10-06T10:28:06.534Z,15.27
2022-10-06T10:30:39.024Z,11.30
2022-10-06T10:33:35.693Z,12.10
2022-10-06T10:36:03.987Z,12.45
2022-10-06T10:38:32.853Z,9.00
2022-10-06T10:41:03.138Z,11.50
2022-10-06T10:43:30.355Z,7.37
2022-10-06T10:46:03.389Z,8.43
2022-10-06T10:48:48.922Z,8.85
2022-10-06T10:51:21.556Z,9.80
2022-10-06T10:53:57.734Z,7.63
2022-10-06T10:56:25.347Z,7.70
2022-10-06T10:59:02.081Z,7.20
2022-10-06T11:01:29.586Z,9.77
2022-10-06T11:03:57.989Z,5.95
2022-10-06T11:06:25.518Z,7.78
2022-10-06T11:09:02.460Z,7.03
2022-10-06T11:11:29.779Z,9.65
2022-10-06T11:13:58.931Z,13.25
2022-10-06T11:16:32.369Z,6.35
2022-10-06T11:19:18.380Z,5.55
2022-10-06T11:21:48.517Z,7.40
2022-10-06T11:24:15.761Z,5.68
2022-10-06T11:26:53.510Z,4.68
2022-10-06T11:29:20.794Z,5.45
2022-10-06T11:32:18.154Z,3.22
2022-10-06T11:34:48.541Z,3.22
2022-10-06T11:37:15.793Z,2.08
2022-10-06T11:40:06.542Z,6.75
2022-10-06T11:42:37.157Z,4.43
2022-10-06T11:45:06.033Z,5.15
2022-10-06T11:47:41.686Z,2.33
2022-10-06T11:50:27.835Z,6.90
2022-10-06T11:52:55.919Z,4.35
2022-10-06T11:55:26.278Z,6.13
2022-10-06T11:58:23.359Z,3.08
2022-10-06T12:03:33.945Z,7.10
2022-10-06T12:06:02.783Z,7.70
2022-10-06T12:08:36.923Z,2.42
2022-10-06T12:11:04.975Z,5.28
2022-10-06T12:19:22.731Z,5.07
2022-10-06T12:21:52.693Z,6.45
2022-10-06T12:24:29.031Z,4.13
2022-10-06T12:27:02.453Z,1.63
2022-10-06T12:29:32.610Z,3.35
2022-10-06T12:32:17.671Z,7.47
2022-10-06T12:35:03.380Z,2.55
2022-10-06T12:37:30.811Z,5.18
2022-10-06T12:40:16.892Z,17.77
2022-10-06T12:42:44.151Z,4.90
2022-10-06T12:45:16.425Z,5.65
2022-10-06T12:47:47.491Z,6.30
2022-10-06T12:50:28.045Z,8.32
2022-10-06T12:52:57.464Z,7.63
2022-10-06T12:55:49.215Z,7.03
2022-10-06T12:58:36.695Z,4.75
2022-10-06T13:01:06.228Z,3.50
2022-10-06T13:03:33.639Z,3.90
2022-10-06T13:06:03.417Z,3.53
2022-10-06T13:08:34.636Z,6.68
2022-10-06T13:13:29.018Z,11.35
2022-10-06T13:16:00.660Z,3.53
2022-10-06T13:18:28.496Z,4.35
2022-10-06T13:20:56.573Z,7.10
2022-10-06T13:23:28.561Z,12.30
2022-10-06T13:25:55.831Z,5.45
2022-10-06T13:28:29.407Z,5.13
2022-10-06T13:30:58.631Z,7.57
2022-10-06T13:33:27.761Z,7.38
2022-10-06T13:35:55.709Z,7.03
2022-10-06T13:38:23.040Z,2.75
2022-10-06T13:41:04.112Z,8.65
2022-10-06T13:43:36.117Z,4.60
2022-10-06T13:46:10.778Z,5.00
2022-10-06T13:48:44.915Z,4.50
2022-10-06T13:51:19.857Z,2.58
2022-10-06T13:53:48.536Z,4.45
2022-10-06T13:56:26.593Z,9.18
2022-10-06T13:58:54.010Z,2.10
2022-10-06T14:01:31.593Z,4.97
2022-10-06T14:04:14.224Z,7.47
2022-10-06T14:06:50.617Z,5.82
2022-10-06T14:09:21.642Z,3.00
2022-10-06T14:11:49.054Z,3.30
2022-10-06T14:14:18.031Z,4.75
2022-10-06T14:16:53.615Z,4.22
2022-10-06T14:19:30.885Z,9.82
2022-10-06T14:21:58.134Z,8.10
2022-10-06T14:24:29.065Z,7.47
2022-10-06T14:27:01.308Z,10.98
2022-10-06T14:29:28.788Z,3.83
2022-10-06T14:31:56.037Z,4.85
2022-10-06T14:34:23.374Z,4.45
2022-10-06T14:36:51.798Z,7.57
2022-10-06T14:39:19.552Z,4.03
2022-10-06T14:41:47.003Z,3.92
2022-10-06T14:44:15.892Z,6.45
2022-10-06T14:46:44.568Z,9.73
2022-10-06T14:49:14.065Z,4.13
2022-10-06T14:51:44.139Z,2.28
2022-10-06T14:54:12.171Z,7.15
2022-10-06T14:56:40.173Z,4.95
2022-10-06T14:59:09.114Z,8.77
2022-10-06T15:01:37.449Z,3.92
2022-10-06T15:04:06.719Z,9.80
2022-10-06T15:06:52.864Z,2.83
2022-10-06T15:09:20.127Z,6.15
2022-10-06T15:11:47.389Z,3.17
2022-10-06T15:14:15.964Z,5.10
2022-10-06T15:16:44.668Z,5.05
2022-10-06T15:19:12.841Z,6.43
2022-10-06T15:21:40.852Z,3.30
2022-10-06T15:24:08.738Z,5.32
2022-10-06T15:26:54.651Z,6.75
2022-10-06T15:29:21.928Z,10.02
2022-10-06T15:31:54.697Z,4.95
2022-10-06T15:34:29.202Z,5.78
2022-10-06T15:36:57.832Z,6.53
2022-10-06T15:39:26.550Z,6.45
2022-10-06T15:41:53.826Z,6.53
2022-10-06T15:44:21.459Z,5.47
2022-10-06T15:46:52.607Z,6.57
2022-10-06T15:51:54.047Z,5.53
2022-10-06T15:56:52.007Z,5.85
2022-10-06T15:59:25.759Z,7.95
2022-10-06T16:01:56.773Z,4.35
2022-10-06T16:07:07.509Z,7.60
2022-10-06T16:09:39.325Z,5.53
2022-10-06T16:12:11.360Z,8.45
2022-10-06T16:14:38.651Z,5.20
2022-10-06T16:17:06.678Z,6.38
2022-10-06T16:19:37.064Z,9.05
2022-10-06T16:22:05.159Z,8.77
2022-10-06T16:24:32.740Z,8.48
2022-10-06T16:27:00.293Z,4.60
2022-10-06T16:29:28.209Z,10.73
2022-10-06T16:31:55.917Z,5.65
2022-10-06T16:34:23.486Z,10.18
2022-10-06T16:36:50.730Z,7.80
2022-10-06T16:39:19.939Z,7.03
2022-10-06T16:41:47.309Z,7.13
2022-10-06T16:44:14.671Z,9.77
2022-10-06T16:46:42.249Z,9.70
2022-10-06T16:49:09.891Z,11.43
2022-10-06T16:51:38.342Z,8.70
2022-10-06T16:54:09.623Z,8.38
2022-10-06T16:56:38.475Z,6.97
2022-10-06T16:59:13.100Z,3.95
2022-10-06T17:01:40.449Z,5.60
2022-10-06T17:04:09.518Z,6.75
2022-10-06T17:06:39.889Z,8.80
2022-10-06T17:09:08.386Z,7.23
2022-10-06T17:11:36.504Z,7.50
2022-10-06T17:14:03.888Z,6.70
2022-10-06T17:16:32.770Z,11.15
2022-10-06T17:19:00.626Z,9.10
2022-10-06T17:21:55.692Z,8.82
2022-10-06T17:24:17.834Z,7.57
2022-10-06T17:26:47.069Z,7.07
2022-10-06T17:29:16.059Z,10.18
2022-10-06T17:31:43.700Z,9.68
2022-10-06T17:34:12.526Z,13.30
2022-10-06T17:36:40.960Z,6.75
2022-10-06T17:39:08.990Z,11.73
2022-10-06T17:41:37.339Z,8.07
2022-10-06T17:44:05.706Z,12.95
2022-10-06T17:46:34.624Z,14.93
2022-10-06T17:49:07.546Z,9.85
2022-10-06T17:51:36.258Z,8.60
2022-10-06T17:54:04.755Z,11.68
2022-10-06T17:56:35.741Z,11.90
2022-10-06T17:59:04.663Z,8.60
2022-10-06T18:01:33.482Z,11.40
2022-10-06T18:04:01.702Z,8.18
2022-10-06T18:06:30.072Z,12.75
2022-10-06T18:08:59.706Z,7.70
2022-10-06T18:11:48.355Z,15.93
2022-10-06T18:14:17.677Z,14.63
2022-10-06T18:16:56.377Z,12.80
2022-10-06T18:19:34.619Z,8.07
2022-10-06T18:22:10.475Z,13.50
2022-10-06T18:24:38.062Z,11.32
2022-10-06T18:27:06.567Z,11.60
2022-10-06T18:29:35.134Z,11.00
2022-10-06T18:37:37.845Z,11.60
2022-10-06T18:40:07.073Z,12.90
2022-10-06T18:42:34.385Z,11.40
2022-10-06T18:45:20.103Z,14.55
2022-10-06T18:48:06.294Z,15.45
2022-10-06T18:50:35.297Z,15.88
2022-10-06T18:53:04.361Z,19.17
2022-10-06T18:55:32.153Z,11.60
2022-10-06T18:57:59.401Z,14.40
2022-10-06T19:00:26.647Z,14.10
2022-10-06T19:02:55.583Z,13.95
2022-10-06T19:05:23.448Z,13.93
2022-10-06T19:07:52.787Z,13.23
2022-10-06T19:10:20.170Z,11.70
2022-10-06T19:12:48.480Z,14.88
2022-10-06T19:15:20.413Z,21.20
2022-10-06T19:17:48.826Z,9.90
2022-10-06T19:20:16.279Z,11.60
2022-10-06T19:22:43.586Z,12.48
2022-10-06T19:25:11.534Z,15.65
2022-10-06T19:27:38.795Z,12.90
2022-10-06T19:30:07.278Z,11.00
2022-10-06T19:32:34.545Z,14.60
2022-10-06T19:35:06.329Z,13.60
2022-10-06T19:37:36.576Z,12.27
2022-10-06T19:40:03.898Z,13.50
2022-10-06T19:42:49.468Z,10.57
2022-10-06T19:45:17.318Z,20.45
2022-10-06T19:47:45.518Z,16.27
2022-10-06T19:50:13.534Z,11.07
2022-10-06T19:52:41.456Z,16.35
2022-10-06T19:55:08.794Z,13.65
2022-10-06T19:57:36.042Z,15.38
2022-10-06T20:00:03.462Z,12.93
2022-10-06T20:02:30.737Z,15.55
2022-10-06T20:04:57.965Z,10.27
2022-10-06T20:07:27.874Z,14.68
2022-10-06T20:09:55.724Z,14.90
2022-10-06T20:12:25.249Z,15.32
2022-10-06T20:14:53.682Z,14.38
2022-10-06T20:17:21.310Z,12.35
2022-10-06T20:19:48.865Z,16.25
2022-10-06T20:22:16.153Z,20.90
2022-10-06T20:24:43.414Z,13.57
2022-10-06T20:27:10.727Z,22.42
2022-10-06T20:29:37.985Z,14.23
2022-10-06T20:32:05.783Z,15.85
2022-10-06T20:34:33.443Z,13.77
2022-10-06T20:37:02.458Z,11.60
2022-10-06T20:39:49.846Z,15.18
2022-10-06T20:42:17.480Z,19.73
2022-10-06T20:44:44.786Z,9.65
2022-10-06T20:47:13.295Z,13.88
2022-10-06T20:49:42.586Z,11.60
2022-10-06T20:52:10.236Z,11.35
2022-10-06T20:54:37.756Z,12.90
2022-10-06T20:57:06.870Z,14.70
2022-10-06T20:59:37.699Z,18.17
2022-10-06T21:02:06.078Z,13.93
2022-10-06T21:04:33.957Z,14.43
2022-10-06T21:07:04.022Z,20.27
2022-10-06T21:09:31.318Z,17.70
2022-10-06T21:11:58.606Z,14.10
2022-10-06T21:14:26.026Z,14.00
2022-10-06T21:16:53.463Z,15.73
2022-10-06T21:19:20.816Z,11.02
2022-10-06T21:21:51.840Z,12.88
2022-10-06T21:26:46.420Z,10.13
2022-10-06T21:29:16.362Z,11.52
2022-10-06T21:31:44.522Z,14.70
2022-10-06T21:34:11.831Z,11.38
2022-10-06T21:36:39.420Z,20.10
2022-10-06T21:39:07.060Z,13.25
2022-10-06T21:41:38.365Z,21.73
2022-10-06T21:44:18.946Z,16.98
2022-10-06T21:46:56.243Z,11.95
2022-10-06T21:49:28.350Z,12.60
2022-10-06T21:51:56.530Z,16.17
2022-10-06T21:54:24.154Z,14.75
2022-10-06T21:56:51.522Z,18.30
2022-10-06T21:59:18.888Z,19.73
2022-10-06T22:01:46.904Z,9.68
2022-10-06T22:04:15.021Z,13.80
2022-10-06T22:06:42.894Z,18.02
2022-10-06T22:09:14.128Z,18.02
2022-10-06T22:14:11.085Z,19.90
2022-10-06T22:16:38.598Z,20.05
2022-10-06T22:19:07.347Z,21.10
2022-10-06T22:21:35.968Z,20.73
2022-10-06T22:24:04.804Z,13.85
2022-10-06T22:26:33.191Z,16.58
2022-10-06T22:29:00.757Z,12.88
2022-10-06T22:31:29.711Z,11.68
2022-10-06T22:33:58.119Z,9.45
2022-10-06T22:36:26.283Z,17.40
2022-10-06T22:38:54.150Z,12.10
2022-10-06T22:41:21.930Z,17.80
2022-10-06T22:43:49.503Z,19.25
2022-10-06T22:46:16.893Z,13.70
2022-10-06T22:48:44.205Z,12.85
2022-10-06T22:51:11.480Z,17.30
2022-10-06T22:53:38.786Z,14.15
2022-10-06T22:56:06.170Z,15.40
2022-10-06T22:58:36.283Z,15.30
2022-10-06T23:01:13.104Z,18.85
2022-10-06T23:03:41.263Z,15.50
2022-10-06T23:06:10.658Z,14.98
2022-10-06T23:08:38.249Z,14.80
2022-10-06T23:11:10.045Z,14.63
2022-10-06T23:13:37.565Z,9.02
2022-10-06T23:16:08.936Z,12.60
2022-10-06T23:18:37.402Z,16.30
2022-10-06T23:21:08.471Z,14.02
2022-10-06T23:23:36.026Z,15.70
2022-10-06T23:26:04.482Z,12.68
2022-10-06T23:28:31.836Z,11.73
2022-10-06T23:30:59.218Z,17.80
2022-10-06T23:33:26.607Z,17.17
2022-10-06T23:36:12.983Z,17.83
2022-10-06T23:38:40.372Z,17.88
2022-10-06T23:41:08.215Z,21.23
2022-10-06T23:43:35.933Z,14.88
2022-10-06T23:46:03.746Z,11.52
2022-10-06T23:48:31.194Z,17.98
2022-10-06T23:51:02.883Z,15.10
2022-10-06T23:53:30.886Z,16.27
2022-10-06T23:55:58.667Z,12.73
2022-10-06T23:58:26.213Z,14.68
